Time,TemperatureF,DewpointF,PressureIn,WindDirection,WindDirectionDegrees,WindSpeedMPH,WindSpeedGustMPH,Humidity,HourlyPrecipIn,Conditions,Clouds,dailyrainin,SoftwareType,DateUTC
2013-05-28 00:01:00,75.7,66.9,30.12,NE,41,7.0,20.0,74,0.00,,,0.00,meteohub,2013-05-28 04:01:00,
2013-05-28 00:02:00,75.7,66.9,30.12,East,94,3.0,20.0,74,0.00,,,0.00,meteohub,2013-05-28 04:02:00,
2013-05-28 00:03:00,75.7,66.9,30.12,ESE,108,5.0,20.0,74,0.00,,,0.00,meteohub,2013-05-28 04:03:00,
2013-05-28 00:08:00,75.6,67.1,30.12,ESE,113,5.0,13.0,75,0.00,,,0.00,meteohub,2013-05-28 04:08:00,
2013-05-28 00:13:00,75.4,67.3,30.12,SSE,149,4.0,13.0,76,0.00,,,0.00,meteohub,2013-05-28 04:13:00,
2013-05-28 00:18:00,75.4,67.3,30.12,East,82,5.0,13.0,76,0.00,,,0.00,meteohub,2013-05-28 04:18:00,
2013-05-28 00:23:00,75.2,67.1,30.12,East,80,2.0,13.0,76,0.00,,,0.00,meteohub,2013-05-28 04:23:00,
2013-05-28 00:28:00,75.0,67.3,30.12,East,91,6.0,19.0,77,0.00,,,0.00,meteohub,2013-05-28 04:28:00,
2013-05-28 00:33:00,75.0,67.3,30.12,SE,124,3.0,19.0,77,0.00,,,0.00,meteohub,2013-05-28 04:33:00,
2013-05-28 00:38:00,74.8,67.5,30.12,SE,128,7.0,19.0,78,0.00,,,0.00,meteohub,2013-05-28 04:38:00,
2013-05-28 00:43:00,74.8,67.5,30.12,SSW,200,2.0,14.0,78,0.00,,,0.00,meteohub,2013-05-28 04:43:00,
2013-05-28 00:48:00,74.7,67.3,30.12,ESE,123,1.0,13.0,78,0.00,,,0.00,meteohub,2013-05-28 04:48:00,
2013-05-28 00:53:00,74.7,67.6,30.12,East,94,2.0,13.0,79,0.00,,,0.00,meteohub,2013-05-28 04:53:00,
2013-05-28 00:58:00,74.5,67.5,30.12,SSE,147,4.0,15.0,79,0.00,,,0.00,meteohub,2013-05-28 04:58:00,
2013-05-28 01:03:00,74.5,67.5,30.11,East,91,3.0,15.0,79,0.00,,,0.00,meteohub,2013-05-28 05:03:00,
2013-05-28 01:08:00,74.3,67.3,30.11,South,177,5.0,16.0,79,0.00,,,0.00,meteohub,2013-05-28 05:08:00,
2013-05-28 01:14:00,74.3,67.6,30.11,ENE,77,7.0,16.0,80,0.00,,,0.00,meteohub,2013-05-28 05:14:00,
2013-05-28 01:19:00,74.1,67.6,30.11,SE,132,5.0,11.0,80,0.00,,,0.00,meteohub,2013-05-28 05:19:00,
2013-05-28 01:24:00,74.1,68.0,30.11,East,83,3.0,13.0,81,0.00,,,0.00,meteohub,2013-05-28 05:24:00,
2013-05-28 01:29:00,73.9,67.8,30.11,SE,142,5.0,15.0,81,0.00,,,0.00,meteohub,2013-05-28 05:29:00,
2013-05-28 01:34:00,73.9,68.2,30.10,East,92,7.0,15.0,82,0.00,,,0.00,meteohub,2013-05-28 05:34:00,
2013-05-28 01:39:00,73.9,68.2,30.10,SSE,152,4.0,15.0,82,0.00,,,0.00,meteohub,2013-05-28 05:39:00,
2013-05-28 01:44:00,73.8,68.0,30.10,SE,125,9.0,15.0,82,0.00,,,0.00,meteohub,2013-05-28 05:44:00,
2013-05-28 01:49:00,73.8,68.0,30.10,ESE,123,9.0,14.0,82,0.00,,,0.00,meteohub,2013-05-28 05:49:00,
2013-05-28 01:54:00,73.8,68.0,30.09,SE,132,3.0,14.0,82,0.00,,,0.00,meteohub,2013-05-28 05:54:00,
2013-05-28 01:59:00,73.8,68.4,30.09,SE,126,5.0,14.0,83,0.00,,,0.00,meteohub,2013-05-28 05:59:00,
2013-05-28 02:04:00,73.6,68.2,30.09,ESE,117,8.0,12.0,83,0.00,,,0.00,meteohub,2013-05-28 06:04:00,
2013-05-28 02:09:00,73.6,68.2,30.09,SSE,160,3.0,12.0,83,0.00,,,0.00,meteohub,2013-05-28 06:09:00,
2013-05-28 02:14:00,73.6,68.4,30.09,SE,134,3.0,12.0,84,0.00,,,0.00,meteohub,2013-05-28 06:14:00,
2013-05-28 02:19:00,73.6,68.4,30.09,SSE,155,9.0,10.0,84,0.00,,,0.00,meteohub,2013-05-28 06:19:00,
2013-05-28 02:24:00,73.4,68.2,30.08,South,171,5.0,12.0,84,0.00,,,0.00,meteohub,2013-05-28 06:24:00,
2013-05-28 02:29:00,73.4,68.2,30.08,ESE,120,3.0,15.0,84,0.00,,,0.00,meteohub,2013-05-28 06:29:00,
2013-05-28 02:35:00,73.2,68.2,30.08,SE,128,6.0,15.0,84,0.00,,,0.00,meteohub,2013-05-28 06:35:00,
2013-05-28 02:40:00,73.2,68.4,30.08,ESE,109,5.0,15.0,85,0.00,,,0.00,meteohub,2013-05-28 06:40:00,
2013-05-28 02:45:00,73.2,68.4,30.08,SE,124,9.0,13.0,85,0.00,,,0.00,meteohub,2013-05-28 06:45:00,
2013-05-28 02:50:00,73.0,68.2,30.08,SE,130,7.0,13.0,85,0.00,,,0.00,meteohub,2013-05-28 06:50:00,
2013-05-28 02:55:00,73.0,68.2,30.08,SE,145,9.0,13.0,85,0.00,,,0.00,meteohub,2013-05-28 06:55:00,
2013-05-28 03:00:00,73.0,68.2,30.08,ESE,122,9.0,13.0,85,0.00,,,0.00,meteohub,2013-05-28 07:00:00,
2013-05-28 03:05:00,73.0,68.2,30.07,ESE,107,5.0,12.0,85,0.00,,,0.00,meteohub,2013-05-28 07:05:00,
2013-05-28 03:10:00,73.0,68.5,30.07,ESE,123,4.0,12.0,86,0.00,,,0.00,meteohub,2013-05-28 07:10:00,
2013-05-28 03:15:00,72.9,68.4,30.07,ESE,105,7.0,12.0,86,0.00,,,0.00,meteohub,2013-05-28 07:15:00,
2013-05-28 03:20:00,72.9,68.4,30.07,ESE,113,1.0,10.0,86,0.00,,,0.00,meteohub,2013-05-28 07:20:00,
2013-05-28 03:25:00,72.7,68.2,30.07,ESE,119,4.0,10.0,86,0.00,,,0.00,meteohub,2013-05-28 07:25:00,
2013-05-28 03:30:00,72.7,68.2,30.06,East,94,8.0,10.0,86,0.00,,,0.00,meteohub,2013-05-28 07:30:00,
2013-05-28 03:35:00,72.7,68.2,30.06,SE,128,3.0,11.0,86,0.00,,,0.00,meteohub,2013-05-28 07:35:00,
2013-05-28 03:40:00,72.7,68.5,30.06,SE,143,5.0,11.0,87,0.00,,,0.00,meteohub,2013-05-28 07:40:00,
2013-05-28 03:45:00,72.7,68.5,30.06,East,85,3.0,10.0,87,0.00,,,0.00,meteohub,2013-05-28 07:45:00,
2013-05-28 03:50:00,72.7,68.5,30.06,ESE,122,7.0,10.0,87,0.00,,,0.00,meteohub,2013-05-28 07:50:00,
2013-05-28 03:56:00,72.7,68.2,30.06,ESE,112,2.0,9.0,86,0.00,,,0.00,meteohub,2013-05-28 07:56:00,
2013-05-28 04:01:00,72.7,68.5,30.06,SE,143,4.0,10.0,87,0.00,,,0.00,meteohub,2013-05-28 08:01:00,
2013-05-28 04:06:00,72.7,68.5,30.05,ESE,111,2.0,10.0,87,0.00,,,0.00,meteohub,2013-05-28 08:06:00,
2013-05-28 04:11:00,72.5,68.4,30.06,ESE,119,4.0,8.0,87,0.00,,,0.00,meteohub,2013-05-28 08:11:00,
2013-05-28 04:16:00,72.7,68.5,30.05,East,92,3.0,8.0,87,0.00,,,0.00,meteohub,2013-05-28 08:16:00,
2013-05-28 04:21:00,72.7,68.5,30.05,ESE,117,2.0,9.0,87,0.00,,,0.00,meteohub,2013-05-28 08:21:00,
2013-05-28 04:26:00,72.7,68.5,30.05,ESE,108,3.0,9.0,87,0.00,,,0.00,meteohub,2013-05-28 08:26:00,
2013-05-28 04:31:00,72.7,68.5,30.05,SSE,148,3.0,10.0,87,0.00,,,0.00,meteohub,2013-05-28 08:31:00,
2013-05-28 04:36:00,72.7,68.5,30.05,ESE,113,3.0,11.0,87,0.00,,,0.00,meteohub,2013-05-28 08:36:00,
2013-05-28 04:41:00,72.7,68.5,30.05,ESE,118,3.0,11.0,87,0.00,,,0.00,meteohub,2013-05-28 08:41:00,
2013-05-28 04:46:00,72.7,68.5,30.05,ESE,122,4.0,11.0,87,0.00,,,0.00,meteohub,2013-05-28 08:46:00,
2013-05-28 04:51:00,72.7,68.5,30.05,SE,126,8.0,9.0,87,0.00,,,0.00,meteohub,2013-05-28 08:51:00,
2013-05-28 04:56:00,72.7,68.5,30.05,ESE,120,3.0,10.0,87,0.00,,,0.00,meteohub,2013-05-28 08:56:00,
2013-05-28 05:01:00,72.9,68.7,30.05,ESE,115,1.0,11.0,87,0.00,,,0.00,meteohub,2013-05-28 09:01:00,
2013-05-28 05:06:00,72.9,68.7,30.05,ESE,123,2.0,11.0,87,0.00,,,0.00,meteohub,2013-05-28 09:06:00,
2013-05-28 05:11:00,72.7,68.5,30.05,ESE,108,3.0,11.0,87,0.00,,,0.00,meteohub,2013-05-28 09:11:00,
2013-05-28 05:17:00,72.7,68.5,30.06,SE,144,5.0,11.0,87,0.00,,,0.00,meteohub,2013-05-28 09:17:00,
2013-05-28 05:22:00,72.7,68.5,30.05,East,97,5.0,11.0,87,0.00,,,0.00,meteohub,2013-05-28 09:22:00,
2013-05-28 05:27:00,72.5,68.4,30.05,SE,142,4.0,11.0,87,0.00,,,0.00,meteohub,2013-05-28 09:27:00,
2013-05-28 05:32:00,72.3,68.2,30.05,East,98,1.0,11.0,87,0.00,,,0.00,meteohub,2013-05-28 09:32:00,
2013-05-28 05:37:00,72.3,68.2,30.06,ESE,115,0.0,9.0,87,0.00,,,0.00,meteohub,2013-05-28 09:37:00,
2013-05-28 05:42:00,72.1,68.0,30.06,East,93,0.0,9.0,87,0.00,,,0.00,meteohub,2013-05-28 09:42:00,
2013-05-28 05:47:00,72.0,68.2,30.06,SSE,159,0.0,7.0,88,0.00,,,0.00,meteohub,2013-05-28 09:47:00,
2013-05-28 05:52:00,71.8,68.0,30.06,ENE,73,0.0,7.0,88,0.00,,,0.00,meteohub,2013-05-28 09:52:00,
2013-05-28 05:57:00,71.4,67.6,30.06,SSE,147,2.0,7.0,88,0.00,,,0.00,meteohub,2013-05-28 09:57:00,
2013-05-28 06:02:00,71.2,67.5,30.06,ENE,61,0.0,7.0,88,0.00,,,0.00,meteohub,2013-05-28 10:02:00,
2013-05-28 06:07:00,71.2,67.8,30.07,SE,128,2.0,7.0,89,0.00,,,0.00,meteohub,2013-05-28 10:07:00,
2013-05-28 06:12:00,71.1,67.6,30.07,ESE,115,3.0,7.0,89,0.00,,,0.00,meteohub,2013-05-28 10:12:00,
2013-05-28 06:17:00,71.1,67.6,30.07,ESE,103,0.0,8.0,89,0.00,,,0.00,meteohub,2013-05-28 10:17:00,
2013-05-28 06:22:00,70.9,67.5,30.07,East,100,2.0,8.0,89,0.00,,,0.00,meteohub,2013-05-28 10:22:00,
2013-05-28 06:27:00,70.9,67.5,30.07,ENE,78,1.0,8.0,89,0.00,,,0.00,meteohub,2013-05-28 10:27:00,
2013-05-28 06:32:00,70.7,67.6,30.07,South,171,0.0,5.0,90,0.00,,,0.00,meteohub,2013-05-28 10:32:00,
2013-05-28 06:37:00,70.5,67.5,30.07,ENE,65,0.0,5.0,90,0.00,,,0.00,meteohub,2013-05-28 10:37:00,
2013-05-28 06:42:00,70.5,67.5,30.07,NNE,26,2.0,5.0,90,0.00,,,0.00,meteohub,2013-05-28 10:42:00,
2013-05-28 06:47:00,70.5,67.5,30.07,NE,56,3.0,4.0,90,0.00,,,0.00,meteohub,2013-05-28 10:47:00,
2013-05-28 06:52:00,70.5,67.5,30.07,ENE,72,0.0,7.0,90,0.00,,,0.00,meteohub,2013-05-28 10:52:00,
2013-05-28 06:57:00,70.5,67.5,30.08,ENE,63,0.0,7.0,90,0.00,,,0.00,meteohub,2013-05-28 10:57:00,
2013-05-28 07:02:00,70.5,67.5,30.08,SE,132,3.0,6.0,90,0.00,,,0.00,meteohub,2013-05-28 11:02:00,
2013-05-28 07:07:00,70.5,67.5,30.08,East,97,2.0,5.0,90,0.00,,,0.00,meteohub,2013-05-28 11:07:00,
2013-05-28 07:12:00,70.5,67.5,30.08,SE,136,0.0,9.0,90,0.00,,,0.00,meteohub,2013-05-28 11:12:00,
2013-05-28 07:17:00,70.7,67.6,30.08,East,94,1.0,9.0,90,0.00,,,0.00,meteohub,2013-05-28 11:17:00,
2013-05-28 07:22:00,70.9,67.8,30.08,ESE,111,0.0,9.0,90,0.00,,,0.00,meteohub,2013-05-28 11:22:00,
2013-05-28 07:27:00,71.2,68.2,30.08,ENE,75,2.0,7.0,90,0.00,,,0.00,meteohub,2013-05-28 11:27:00,
2013-05-28 07:32:00,71.4,68.0,30.08,East,92,0.0,7.0,89,0.00,,,0.00,meteohub,2013-05-28 11:32:00,
2013-05-28 07:37:00,72.0,68.5,30.08,ESE,121,3.0,9.0,89,0.00,,,0.00,meteohub,2013-05-28 11:37:00,
2013-05-28 07:42:00,72.1,68.4,30.08,ESE,119,2.0,9.0,88,0.00,,,0.00,meteohub,2013-05-28 11:42:00,
2013-05-28 07:47:00,72.7,68.5,30.08,SE,126,1.0,10.0,87,0.00,,,0.00,meteohub,2013-05-28 11:47:00,
2013-05-28 07:52:00,73.0,68.9,30.08,ESE,117,2.0,10.0,87,0.00,,,0.00,meteohub,2013-05-28 11:52:00,
2013-05-28 07:57:00,73.6,69.1,30.08,ESE,116,4.0,10.0,86,0.00,,,0.00,meteohub,2013-05-28 11:57:00,
2013-05-28 08:02:00,73.8,68.9,30.08,SSE,150,3.0,12.0,85,0.00,,,0.00,meteohub,2013-05-28 12:02:00,
2013-05-28 08:07:00,74.1,69.3,30.08,SE,139,7.0,12.0,85,0.00,,,0.00,meteohub,2013-05-28 12:07:00,
2013-05-28 08:12:00,74.5,68.9,30.09,ENE,63,3.0,12.0,83,0.00,,,0.00,meteohub,2013-05-28 12:12:00,
2013-05-28 08:17:00,74.5,68.9,30.09,ESE,111,8.0,12.0,83,0.00,,,0.00,meteohub,2013-05-28 12:17:00,
2013-05-28 08:22:00,74.7,69.1,30.09,East,89,2.0,12.0,83,0.00,,,0.00,meteohub,2013-05-28 12:22:00,
2013-05-28 08:27:00,74.8,69.3,30.09,ENE,61,3.0,12.0,83,0.00,,,0.00,meteohub,2013-05-28 12:27:00,
2013-05-28 08:32:00,75.0,69.1,30.09,South,179,3.0,15.0,82,0.00,,,0.00,meteohub,2013-05-28 12:32:00,
2013-05-28 08:37:00,75.4,69.1,30.09,ENE,66,1.0,15.0,81,0.00,,,0.00,meteohub,2013-05-28 12:37:00,
2013-05-28 08:42:00,75.6,69.3,30.09,East,92,3.0,12.0,81,0.00,,,0.00,meteohub,2013-05-28 12:42:00,
2013-05-28 08:47:00,75.9,69.6,30.09,East,90,2.0,12.0,81,0.00,,,0.00,meteohub,2013-05-28 12:47:00,
2013-05-28 08:52:00,76.5,69.8,30.09,SSE,157,5.0,13.0,80,0.00,,,0.00,meteohub,2013-05-28 12:52:00,
2013-05-28 08:57:00,76.3,69.6,30.09,ENE,75,5.0,15.0,80,0.00,,,0.00,meteohub,2013-05-28 12:57:00,
2013-05-28 09:02:00,76.5,69.8,30.09,ENE,75,7.0,17.0,80,0.00,,,0.00,meteohub,2013-05-28 13:02:00,
2013-05-28 09:07:00,76.8,69.8,30.09,South,172,4.0,23.0,79,0.00,,,0.00,meteohub,2013-05-28 13:07:00,
2013-05-28 09:12:00,77.4,70.3,30.09,ESE,121,9.0,23.0,79,0.00,,,0.00,meteohub,2013-05-28 13:12:00,
2013-05-28 09:17:00,77.5,70.2,30.09,SSE,151,11.0,23.0,78,0.00,,,0.00,meteohub,2013-05-28 13:17:00,
2013-05-28 09:22:00,77.4,70.0,30.09,SE,134,3.0,15.0,78,0.00,,,0.00,meteohub,2013-05-28 13:22:00,
2013-05-28 09:27:00,77.5,69.8,30.08,East,94,5.0,19.0,77,0.00,,,0.00,meteohub,2013-05-28 13:27:00,
2013-05-28 09:32:00,77.4,70.0,30.09,East,94,2.0,19.0,78,0.00,,,0.00,meteohub,2013-05-28 13:32:00,
2013-05-28 09:37:00,77.5,69.8,30.09,SSE,163,7.0,16.0,77,0.00,,,0.00,meteohub,2013-05-28 13:37:00,
2013-05-28 09:42:00,77.4,70.0,30.09,ESE,105,9.0,18.0,78,0.00,,,0.00,meteohub,2013-05-28 13:42:00,
2013-05-28 09:47:00,77.9,70.2,30.09,ESE,111,7.0,18.0,77,0.00,,,0.00,meteohub,2013-05-28 13:47:00,
2013-05-28 09:52:00,78.4,70.7,30.09,NE,43,4.0,18.0,77,0.00,,,0.00,meteohub,2013-05-28 13:52:00,
2013-05-28 09:57:00,78.6,70.3,30.09,SW,221,3.0,14.0,76,0.00,,,0.00,meteohub,2013-05-28 13:57:00,
2013-05-28 10:02:00,78.6,70.3,30.08,ESE,116,9.0,18.0,76,0.00,,,0.00,meteohub,2013-05-28 14:02:00,
2013-05-28 10:07:00,79.5,70.9,30.08,WSW,247,5.0,18.0,75,0.00,,,0.00,meteohub,2013-05-28 14:07:00,
2013-05-28 10:12:00,80.2,70.9,30.08,ESE,111,11.0,18.0,73,0.00,,,0.00,meteohub,2013-05-28 14:12:00,
2013-05-28 10:17:00,79.9,70.5,30.08,SSE,158,5.0,20.0,73,0.00,,,0.00,meteohub,2013-05-28 14:17:00,
2013-05-28 10:22:00,80.1,71.1,30.08,SSE,147,4.0,20.0,74,0.00,,,0.00,meteohub,2013-05-28 14:22:00,
2013-05-28 10:27:00,80.1,70.7,30.08,ESE,106,8.0,20.0,73,0.00,,,0.00,meteohub,2013-05-28 14:27:00,
2013-05-28 10:32:00,80.8,71.2,30.08,ESE,107,16.0,18.0,73,0.00,,,0.00,meteohub,2013-05-28 14:32:00,
2013-05-28 10:37:00,80.4,70.5,30.09,SE,130,7.0,18.0,72,0.00,,,0.00,meteohub,2013-05-28 14:37:00,
2013-05-28 10:42:00,80.2,71.2,30.08,ESE,109,4.0,17.0,74,0.00,,,0.00,meteohub,2013-05-28 14:42:00,
2013-05-28 10:47:00,80.4,70.9,30.08,ENE,78,4.0,17.0,73,0.00,,,0.00,meteohub,2013-05-28 14:47:00,
2013-05-28 10:52:00,80.2,70.9,30.08,East,98,6.0,17.0,73,0.00,,,0.00,meteohub,2013-05-28 14:52:00,
2013-05-28 10:57:00,80.2,70.9,30.09,ESE,122,3.0,17.0,73,0.00,,,0.00,meteohub,2013-05-28 14:57:00,
2013-05-28 11:02:00,80.8,70.9,30.08,SSE,155,4.0,17.0,72,0.00,,,0.00,meteohub,2013-05-28 15:02:00,
2013-05-28 11:07:00,80.4,70.5,30.08,South,175,6.0,17.0,72,0.00,,,0.00,meteohub,2013-05-28 15:07:00,
2013-05-28 11:12:00,80.8,71.2,30.08,East,93,3.0,17.0,73,0.00,,,0.00,meteohub,2013-05-28 15:12:00,
2013-05-28 11:17:00,81.1,70.9,30.08,ESE,118,3.0,17.0,71,0.00,,,0.00,meteohub,2013-05-28 15:17:00,
2013-05-28 11:22:00,81.7,70.9,30.08,SE,133,7.0,17.0,70,0.00,,,0.00,meteohub,2013-05-28 15:22:00,
2013-05-28 11:27:00,82.2,71.4,30.08,SE,137,10.0,13.0,70,0.00,,,0.00,meteohub,2013-05-28 15:27:00,
2013-05-28 11:32:00,82.8,71.6,30.08,East,99,5.0,13.0,69,0.00,,,0.00,meteohub,2013-05-28 15:32:00,
2013-05-28 11:37:00,82.9,71.8,30.08,NE,50,10.0,13.0,69,0.00,,,0.00,meteohub,2013-05-28 15:37:00,
2013-05-28 11:42:00,82.9,71.2,30.08,SSW,202,4.0,15.0,68,0.00,,,0.00,meteohub,2013-05-28 15:42:00,
2013-05-28 11:47:00,82.9,70.9,30.08,ESE,102,7.0,15.0,67,0.00,,,0.00,meteohub,2013-05-28 15:47:00,
2013-05-28 11:52:00,83.1,71.1,30.08,SE,141,10.0,15.0,67,0.00,,,0.00,meteohub,2013-05-28 15:52:00,
2013-05-28 11:57:00,83.5,70.9,30.09,SSE,161,4.0,17.0,66,0.00,,,0.00,meteohub,2013-05-28 15:57:00,
2013-05-28 12:02:00,83.7,71.6,30.08,East,80,3.0,19.0,67,0.00,,,0.00,meteohub,2013-05-28 16:02:00,
2013-05-28 12:07:00,84.0,71.4,30.08,ESE,121,5.0,19.0,66,0.00,,,0.00,meteohub,2013-05-28 16:07:00,
2013-05-28 12:12:00,84.4,71.8,30.08,NE,34,2.0,19.0,66,0.00,,,0.00,meteohub,2013-05-28 16:12:00,
2013-05-28 12:17:00,84.7,71.2,30.08,ESE,109,9.0,14.0,64,0.00,,,0.00,meteohub,2013-05-28 16:17:00,
2013-05-28 12:22:00,83.8,71.2,30.08,East,99,3.0,14.0,66,0.00,,,0.00,meteohub,2013-05-28 16:22:00,
2013-05-28 12:27:00,84.0,71.4,30.07,ESE,117,5.0,14.0,66,0.00,,,0.00,meteohub,2013-05-28 16:27:00,
2013-05-28 12:32:00,84.7,72.1,30.07,NE,55,4.0,14.0,66,0.00,,,0.00,meteohub,2013-05-28 16:32:00,
2013-05-28 12:37:00,84.7,70.7,30.07,SE,132,10.0,13.0,63,0.00,,,0.00,meteohub,2013-05-28 16:37:00,
2013-05-28 12:42:00,84.6,70.5,30.07,SE,144,5.0,14.0,63,0.00,,,0.00,meteohub,2013-05-28 16:42:00,
2013-05-28 12:47:00,84.9,71.4,30.07,ESE,115,5.0,19.0,64,0.00,,,0.00,meteohub,2013-05-28 16:47:00,
2013-05-28 12:52:00,85.3,71.2,30.06,ENE,60,1.0,19.0,63,0.00,,,0.00,meteohub,2013-05-28 16:52:00,
2013-05-28 12:57:00,86.4,71.2,30.07,South,175,4.0,19.0,61,0.00,,,0.00,meteohub,2013-05-28 16:57:00,
2013-05-28 13:02:00,86.0,71.1,30.06,ESE,113,5.0,13.0,61,0.00,,,0.00,meteohub,2013-05-28 17:02:00,
2013-05-28 13:07:00,85.8,71.2,30.06,NNE,12,5.0,14.0,62,0.00,,,0.00,meteohub,2013-05-28 17:07:00,
2013-05-28 13:12:00,86.5,71.4,30.06,ENE,66,5.0,14.0,61,0.00,,,0.00,meteohub,2013-05-28 17:12:00,
2013-05-28 13:17:00,86.7,71.2,30.06,ESE,105,2.0,14.0,60,0.00,,,0.00,meteohub,2013-05-28 17:17:00,
2013-05-28 13:22:00,86.9,70.3,30.06,East,96,7.0,13.0,58,0.00,,,0.00,meteohub,2013-05-28 17:22:00,
2013-05-28 13:27:00,86.9,70.9,30.05,WSW,250,5.0,16.0,59,0.00,,,0.00,meteohub,2013-05-28 17:27:00,
2013-05-28 13:32:00,87.1,70.5,30.05,South,170,7.0,16.0,58,0.00,,,0.00,meteohub,2013-05-28 17:32:00,
2013-05-28 13:37:00,86.5,70.5,30.05,ENE,69,7.0,16.0,59,0.00,,,0.00,meteohub,2013-05-28 17:37:00,
2013-05-28 13:42:00,86.7,70.7,30.05,East,82,7.0,14.0,59,0.00,,,0.00,meteohub,2013-05-28 17:42:00,
2013-05-28 13:48:00,87.1,70.5,30.05,SSW,192,8.0,15.0,58,0.00,,,0.00,meteohub,2013-05-28 17:48:00,
2013-05-28 13:53:00,87.4,70.9,30.04,ESE,123,5.0,15.0,58,0.00,,,0.00,meteohub,2013-05-28 17:53:00,
2013-05-28 13:58:00,86.5,69.4,30.04,ESE,105,5.0,15.0,57,0.00,,,0.00,meteohub,2013-05-28 17:58:00,
2013-05-28 14:03:00,86.5,70.0,30.04,SSE,158,4.0,15.0,58,0.00,,,0.00,meteohub,2013-05-28 18:03:00,
2013-05-28 14:08:00,86.9,70.9,30.04,ESE,121,7.0,17.0,59,0.00,,,0.00,meteohub,2013-05-28 18:08:00,
2013-05-28 14:13:00,88.3,70.7,30.04,SE,146,12.0,17.0,56,0.00,,,0.00,meteohub,2013-05-28 18:13:00,
2013-05-28 14:18:00,88.2,70.5,30.04,ESE,111,1.0,17.0,56,0.00,,,0.00,meteohub,2013-05-28 18:18:00,
2013-05-28 14:23:00,88.3,70.2,30.04,ESE,111,5.0,15.0,55,0.00,,,0.00,meteohub,2013-05-28 18:23:00,
2013-05-28 14:28:00,87.8,70.7,30.03,East,101,6.0,13.0,57,0.00,,,0.00,meteohub,2013-05-28 18:28:00,
2013-05-28 14:33:00,88.0,70.9,30.03,SE,130,7.0,10.0,57,0.00,,,0.00,meteohub,2013-05-28 18:33:00,
2013-05-28 14:38:00,88.2,71.1,30.03,SE,145,6.0,15.0,57,0.00,,,0.00,meteohub,2013-05-28 18:38:00,
2013-05-28 14:43:00,88.5,70.3,30.03,ESE,115,5.0,15.0,55,0.00,,,0.00,meteohub,2013-05-28 18:43:00,
2013-05-28 14:48:00,88.5,69.8,30.03,ESE,105,11.0,14.0,54,0.00,,,0.00,meteohub,2013-05-28 18:48:00,
2013-05-28 14:54:00,88.3,69.6,30.03,South,179,8.0,18.0,54,0.00,,,0.00,meteohub,2013-05-28 18:54:00,
2013-05-28 14:59:00,88.9,70.7,30.03,NE,54,1.0,18.0,55,0.00,,,0.00,meteohub,2013-05-28 18:59:00,
2013-05-28 15:04:00,89.2,69.8,30.03,ESE,117,9.0,18.0,53,0.00,,,0.00,meteohub,2013-05-28 19:04:00,
2013-05-28 15:09:00,88.7,70.0,30.03,SE,133,6.0,15.0,54,0.00,,,0.00,meteohub,2013-05-28 19:09:00,
2013-05-28 15:14:00,89.2,70.9,30.03,ENE,65,5.0,16.0,55,0.00,,,0.00,meteohub,2013-05-28 19:14:00,
2013-05-28 15:19:00,88.9,70.2,30.03,SE,131,4.0,16.0,54,0.00,,,0.00,meteohub,2013-05-28 19:19:00,
2013-05-28 15:24:00,87.3,72.1,30.03,SSW,202,5.0,22.0,61,0.00,,,0.00,meteohub,2013-05-28 19:24:00,
2013-05-28 15:29:00,86.0,71.4,30.02,ESE,115,9.0,22.0,62,0.00,,,0.00,meteohub,2013-05-28 19:29:00,
2013-05-28 15:34:00,85.6,71.6,30.02,SE,125,5.0,22.0,63,0.00,,,0.00,meteohub,2013-05-28 19:34:00,
2013-05-28 15:39:00,86.5,72.0,30.01,SSE,153,4.0,17.0,62,0.00,,,0.00,meteohub,2013-05-28 19:39:00,
2013-05-28 15:44:00,88.3,70.7,30.01,ESE,115,9.0,13.0,56,0.00,,,0.00,meteohub,2013-05-28 19:44:00,
2013-05-28 15:49:00,88.9,70.7,30.01,SE,125,3.0,12.0,55,0.00,,,0.00,meteohub,2013-05-28 19:49:00,
2013-05-28 15:54:00,88.9,69.6,30.00,East,83,7.0,15.0,53,0.00,,,0.00,meteohub,2013-05-28 19:54:00,
2013-05-28 15:59:00,88.9,70.2,30.00,East,81,3.0,15.0,54,0.00,,,0.00,meteohub,2013-05-28 19:59:00,
2013-05-28 16:04:00,89.2,69.8,30.00,SE,130,3.0,16.0,53,0.00,,,0.00,meteohub,2013-05-28 20:04:00,
2013-05-28 16:09:00,89.2,70.3,30.00,East,92,5.0,16.0,54,0.00,,,0.00,meteohub,2013-05-28 20:09:00,
2013-05-28 16:14:00,90.0,68.9,30.01,ENE,58,9.0,16.0,50,0.00,,,0.00,meteohub,2013-05-28 20:14:00,
2013-05-28 16:20:00,90.3,69.1,30.01,SSE,155,7.0,16.0,50,0.00,,,0.00,meteohub,2013-05-28 20:20:00,
2013-05-28 16:25:00,88.9,68.4,30.01,NE,45,6.0,17.0,51,0.00,,,0.00,meteohub,2013-05-28 20:25:00,
2013-05-28 16:30:00,87.6,68.4,30.01,SE,128,12.0,19.0,53,0.00,,,0.00,meteohub,2013-05-28 20:30:00,
2013-05-28 16:35:00,87.8,69.1,30.01,East,91,9.0,19.0,54,0.00,,,0.00,meteohub,2013-05-28 20:35:00,
2013-05-28 16:40:00,88.3,69.6,30.00,SE,127,2.0,19.0,54,0.00,,,0.00,meteohub,2013-05-28 20:40:00,
2013-05-28 16:45:00,88.9,68.9,30.01,ENE,68,10.0,16.0,52,0.00,,,0.00,meteohub,2013-05-28 20:45:00,
2013-05-28 16:50:00,87.8,69.1,30.01,North,5,5.0,17.0,54,0.00,,,0.00,meteohub,2013-05-28 20:50:00,
2013-05-28 16:55:00,88.2,70.0,30.01,East,94,2.0,17.0,55,0.00,,,0.00,meteohub,2013-05-28 20:55:00,
2013-05-28 17:00:00,88.7,70.5,30.00,ENE,61,1.0,17.0,55,0.00,,,0.00,meteohub,2013-05-28 21:00:00,
2013-05-28 17:05:00,88.5,70.3,29.99,ESE,120,3.0,16.0,55,0.00,,,0.00,meteohub,2013-05-28 21:05:00,
2013-05-28 17:10:00,88.9,70.7,29.99,NE,46,6.0,16.0,55,0.00,,,0.00,meteohub,2013-05-28 21:10:00,
2013-05-28 17:15:00,88.7,70.5,29.99,South,180,5.0,16.0,55,0.00,,,0.00,meteohub,2013-05-28 21:15:00,
2013-05-28 17:20:00,88.5,70.3,29.99,ENE,63,5.0,15.0,55,0.00,,,0.00,meteohub,2013-05-28 21:20:00,
2013-05-28 17:25:00,87.4,70.3,30.00,ESE,119,7.0,17.0,57,0.00,,,0.00,meteohub,2013-05-28 21:25:00,
2013-05-28 17:30:00,86.2,70.7,30.01,SSE,159,13.0,20.0,60,0.00,,,0.00,meteohub,2013-05-28 21:30:00,
2013-05-28 17:36:00,81.9,68.9,30.02,SE,126,17.0,33.0,65,0.00,,,0.00,meteohub,2013-05-28 21:36:00,
2013-05-28 17:41:00,77.7,68.4,30.03,East,98,17.0,33.0,73,0.00,,,0.00,meteohub,2013-05-28 21:41:00,
2013-05-28 17:46:00,73.0,68.2,30.04,SSE,147,15.0,33.0,85,0.06,,,0.06,meteohub,2013-05-28 21:46:00,
2013-05-28 17:51:00,71.8,69.1,30.04,ESE,117,11.0,26.0,91,0.24,,,0.15,meteohub,2013-05-28 21:51:00,
2013-05-28 17:56:00,71.8,69.3,30.03,ESE,118,7.0,26.0,92,0.30,,,0.30,meteohub,2013-05-28 21:56:00,
2013-05-28 18:01:00,72.0,69.4,30.03,SSE,148,5.0,17.0,92,0.37,,,0.37,meteohub,2013-05-28 22:01:00,
2013-05-28 18:06:00,72.1,70.0,30.03,ENE,74,2.0,12.0,93,0.41,,,0.40,meteohub,2013-05-28 22:06:00,
2013-05-28 18:11:00,72.3,70.2,30.02,SE,132,7.0,12.0,93,0.43,,,0.43,meteohub,2013-05-28 22:11:00,
2013-05-28 18:16:00,72.3,70.5,30.01,SE,141,4.0,11.0,94,0.45,,,0.45,meteohub,2013-05-28 22:16:00,
2013-05-28 18:21:00,72.7,70.9,30.02,ESE,108,4.0,11.0,94,0.45,,,0.45,meteohub,2013-05-28 22:21:00,
2013-05-28 18:26:00,72.9,71.4,30.02,ENE,63,0.0,9.0,95,0.47,,,0.47,meteohub,2013-05-28 22:26:00,
2013-05-28 18:31:00,73.0,71.6,30.02,ESE,112,0.0,6.0,95,0.48,,,0.48,meteohub,2013-05-28 22:31:00,
2013-05-28 18:36:00,73.2,71.8,30.02,ENE,75,1.0,6.0,95,0.48,,,0.48,meteohub,2013-05-28 22:36:00,
2013-05-28 18:41:00,73.4,72.0,30.01,SE,136,1.0,5.0,95,0.49,,,0.49,meteohub,2013-05-28 22:41:00,
2013-05-28 18:46:00,73.9,72.5,30.01,SE,139,1.0,5.0,95,0.38,,,0.49,meteohub,2013-05-28 22:46:00,
2013-05-28 18:52:00,74.3,72.9,30.01,ENE,61,2.0,8.0,95,0.24,,,0.49,meteohub,2013-05-28 22:52:00,
2013-05-28 18:57:00,74.7,73.2,30.02,SE,126,0.0,8.0,95,0.15,,,0.49,meteohub,2013-05-28 22:57:00,
2013-05-28 19:02:00,74.8,73.2,30.02,SE,133,1.0,8.0,95,0.11,,,0.49,meteohub,2013-05-28 23:02:00,
2013-05-28 19:07:00,75.0,73.4,30.03,SSE,161,1.0,5.0,95,0.08,,,0.49,meteohub,2013-05-28 23:07:00,
2013-05-28 19:12:00,75.0,73.2,30.02,East,101,0.0,5.0,94,0.06,,,0.49,meteohub,2013-05-28 23:12:00,
2013-05-28 19:17:00,75.0,73.2,30.02,SE,132,2.0,7.0,94,0.04,,,0.49,meteohub,2013-05-28 23:17:00,
2013-05-28 19:22:00,75.4,73.2,30.03,ESE,121,8.0,8.0,93,0.03,,,0.49,meteohub,2013-05-28 23:22:00,
2013-05-28 19:27:00,75.7,72.7,30.03,ESE,118,4.0,11.0,90,0.02,,,0.49,meteohub,2013-05-28 23:27:00,
2013-05-28 19:32:00,75.9,72.5,30.03,SE,126,4.0,11.0,89,0.01,,,0.49,meteohub,2013-05-28 23:32:00,
2013-05-28 19:37:00,76.3,72.5,30.03,ESE,117,1.0,11.0,88,0.01,,,0.49,meteohub,2013-05-28 23:37:00,
2013-05-28 19:42:00,76.3,72.5,30.03,ENE,57,5.0,14.0,88,0.00,,,0.49,meteohub,2013-05-28 23:42:00,
2013-05-28 19:47:00,76.6,72.9,30.03,ESE,118,8.0,14.0,88,0.00,,,0.49,meteohub,2013-05-28 23:47:00,
2013-05-28 19:52:00,76.8,72.7,30.03,NE,50,2.0,15.0,87,0.00,,,0.49,meteohub,2013-05-28 23:52:00,
2013-05-28 19:57:00,76.8,72.7,30.03,East,79,1.0,15.0,87,0.00,,,0.49,meteohub,2013-05-28 23:57:00,
2013-05-28 20:02:00,76.8,72.3,30.03,SSE,151,3.0,13.0,86,0.00,,,0.49,meteohub,2013-05-29 00:02:00,
2013-05-28 20:07:00,77.2,72.7,30.03,NE,53,5.0,13.0,86,0.00,,,0.49,meteohub,2013-05-29 00:07:00,
2013-05-28 20:12:00,77.4,72.5,30.04,ENE,74,1.0,13.0,85,0.00,,,0.49,meteohub,2013-05-29 00:12:00,
2013-05-28 20:17:00,77.4,72.5,30.04,SE,131,3.0,13.0,85,0.00,,,0.49,meteohub,2013-05-29 00:17:00,
2013-05-28 20:22:00,77.5,72.3,30.04,ESE,111,4.0,16.0,84,0.00,,,0.49,meteohub,2013-05-29 00:22:00,
2013-05-28 20:27:00,77.7,72.1,30.03,ESE,121,14.0,16.0,83,0.00,,,0.49,meteohub,2013-05-29 00:27:00,
2013-05-28 20:32:00,77.7,72.1,30.04,SE,124,2.0,16.0,83,0.00,,,0.49,meteohub,2013-05-29 00:32:00,
2013-05-28 20:37:00,77.7,72.1,30.03,SE,132,6.0,17.0,83,0.00,,,0.49,meteohub,2013-05-29 00:37:00,
2013-05-28 20:42:00,77.5,72.0,30.04,ESE,111,10.0,17.0,83,0.00,,,0.49,meteohub,2013-05-29 00:42:00,
2013-05-28 20:47:00,77.4,71.4,30.04,ESE,116,10.0,17.0,82,0.00,,,0.49,meteohub,2013-05-29 00:47:00,
2013-05-28 20:52:00,77.4,71.8,30.04,ENE,68,2.0,17.0,83,0.00,,,0.49,meteohub,2013-05-29 00:52:00,
2013-05-28 20:57:00,77.0,71.8,30.04,SSE,156,3.0,16.0,84,0.00,,,0.49,meteohub,2013-05-29 00:57:00,
2013-05-28 21:02:00,76.6,71.1,30.04,East,99,5.0,16.0,83,0.00,,,0.49,meteohub,2013-05-29 01:02:00,
2013-05-28 21:07:00,76.6,71.1,30.04,ESE,115,4.0,14.0,83,0.00,,,0.49,meteohub,2013-05-29 01:07:00,
2013-05-28 21:12:00,76.5,70.9,30.05,ESE,118,1.0,13.0,83,0.00,,,0.49,meteohub,2013-05-29 01:12:00,
2013-05-28 21:17:00,76.5,70.9,30.05,SE,138,3.0,13.0,83,0.00,,,0.49,meteohub,2013-05-29 01:17:00,
2013-05-28 21:22:00,76.5,70.2,30.05,South,177,3.0,10.0,81,0.00,,,0.49,meteohub,2013-05-29 01:22:00,
2013-05-28 21:27:00,76.6,70.3,30.05,East,96,10.0,16.0,81,0.00,,,0.49,meteohub,2013-05-29 01:27:00,
2013-05-28 21:32:00,76.6,70.3,30.05,SE,135,7.0,16.0,81,0.00,,,0.49,meteohub,2013-05-29 01:32:00,
2013-05-28 21:37:00,76.6,70.3,30.05,SE,131,2.0,16.0,81,0.00,,,0.49,meteohub,2013-05-29 01:37:00,
2013-05-28 21:42:00,76.5,70.2,30.05,SE,136,3.0,15.0,81,0.00,,,0.49,meteohub,2013-05-29 01:42:00,
2013-05-28 21:47:00,76.5,70.5,30.06,SE,134,5.0,15.0,82,0.00,,,0.49,meteohub,2013-05-29 01:47:00,
2013-05-28 21:52:00,76.3,70.7,30.05,ESE,123,5.0,12.0,83,0.00,,,0.49,meteohub,2013-05-29 01:52:00,
2013-05-28 21:57:00,76.3,70.3,30.06,SE,134,2.0,13.0,82,0.00,,,0.49,meteohub,2013-05-29 01:57:00,
2013-05-28 22:02:00,76.3,70.3,30.06,SE,134,2.0,13.0,82,0.00,,,0.49,meteohub,2013-05-29 02:02:00,
2013-05-28 22:07:00,76.3,70.3,30.06,ESE,123,7.0,13.0,82,0.00,,,0.49,meteohub,2013-05-29 02:07:00,
2013-05-28 22:12:00,76.1,70.2,30.06,SE,132,2.0,11.0,82,0.00,,,0.49,meteohub,2013-05-29 02:12:00,
2013-05-28 22:17:00,76.1,70.5,30.05,ESE,118,9.0,11.0,83,0.00,,,0.49,meteohub,2013-05-29 02:17:00,
2013-05-28 22:22:00,76.1,70.5,30.05,ESE,108,3.0,13.0,83,0.00,,,0.49,meteohub,2013-05-29 02:22:00,
2013-05-28 22:27:00,75.9,70.3,30.06,East,84,5.0,13.0,83,0.00,,,0.49,meteohub,2013-05-29 02:27:00,
2013-05-28 22:32:00,75.9,70.3,30.06,SSW,196,5.0,13.0,83,0.00,,,0.49,meteohub,2013-05-29 02:32:00,
2013-05-28 22:37:00,75.9,70.3,30.06,East,90,8.0,12.0,83,0.00,,,0.49,meteohub,2013-05-29 02:37:00,
2013-05-28 22:42:00,75.9,70.3,30.06,SSE,157,2.0,12.0,83,0.00,,,0.49,meteohub,2013-05-29 02:42:00,
2013-05-28 22:47:00,75.7,70.2,30.06,SE,140,2.0,12.0,83,0.00,,,0.49,meteohub,2013-05-29 02:47:00,
2013-05-28 22:52:00,75.7,70.2,30.06,East,96,7.0,12.0,83,0.00,,,0.49,meteohub,2013-05-29 02:52:00,
2013-05-28 22:57:00,75.7,70.2,30.06,ESE,123,3.0,12.0,83,0.00,,,0.49,meteohub,2013-05-29 02:57:00,
2013-05-28 23:02:00,75.7,70.2,30.06,ESE,118,7.0,13.0,83,0.00,,,0.49,meteohub,2013-05-29 03:02:00,
2013-05-28 23:07:00,75.9,70.3,30.07,ESE,108,12.0,13.0,83,0.00,,,0.49,meteohub,2013-05-29 03:07:00,
2013-05-28 23:12:00,75.9,70.7,30.07,ESE,117,2.0,13.0,84,0.00,,,0.49,meteohub,2013-05-29 03:12:00,
2013-05-28 23:17:00,75.9,70.7,30.07,ESE,121,4.0,13.0,84,0.00,,,0.49,meteohub,2013-05-29 03:17:00,
2013-05-28 23:22:00,75.7,70.9,30.07,ESE,115,5.0,14.0,85,0.00,,,0.49,meteohub,2013-05-29 03:22:00,
2013-05-28 23:27:00,75.7,70.9,30.06,SE,143,6.0,14.0,85,0.00,,,0.49,meteohub,2013-05-29 03:27:00,
2013-05-28 23:32:00,75.6,71.1,30.06,ENE,67,7.0,14.0,86,0.00,,,0.49,meteohub,2013-05-29 03:32:00,
2013-05-28 23:37:00,75.6,71.1,30.06,ESE,113,4.0,11.0,86,0.00,,,0.49,meteohub,2013-05-29 03:37:00,
2013-05-28 23:42:00,75.6,71.4,30.06,SSW,198,4.0,11.0,87,0.00,,,0.49,meteohub,2013-05-29 03:42:00,
2013-05-28 23:47:00,75.6,71.4,30.06,ESE,120,1.0,13.0,87,0.00,,,0.49,meteohub,2013-05-29 03:47:00,
2013-05-28 23:52:00,75.6,71.4,30.06,SE,139,7.0,13.0,87,0.00,,,0.49,meteohub,2013-05-29 03:52:00,
2013-05-28 23:57:00,75.4,71.2,30.06,SE,135,3.0,16.0,87,0.00,,,0.49,meteohub,2013-05-29 03:57:00,